Time;durP1;ratioP1;P1;durP2;ratioP2;P2;SDS_P1;SDS_P2;PMS_P1;PMS_P2;Temp;Humidity;BMP_temperature;BMP_pressure;BME280_temperature;BME280_humidity;BME280_pressure;Samples;Min_cycle;Max_cycle;Signal;HPM_P1;HPM_P2
2023/11/25 00:01:43;;;;;;;10.93;4.57;;;;;;;;;;6351838;28;20081;-92
2023/11/25 00:04:45;;;;;;;4.93;1.92;;;;;;;;;;6362181;27;20053;-90
2023/11/25 00:07:47;;;;;;;0.30;0.13;;;;;;;;;;6360547;27;20189;-89
2023/11/25 00:10:51;;;;;;;1.40;0.28;;;;;;;;;;6360100;27;20059;-90
2023/11/25 00:13:53;;;;;;;0.93;0.20;;;;;;;;;;6357174;28;20104;-90
2023/11/25 00:16:55;;;;;;;0.32;0.20;;;;;;;;;;6349804;27;20050;-89
2023/11/25 00:19:58;;;;;;;0.40;0.25;;;;;;;;;;6349616;28;20048;-90
2023/11/25 00:23:00;;;;;;;1.50;0.17;;;;;;;;;;6358331;28;20094;-89
2023/11/25 00:26:03;;;;;;;0.22;0.10;;;;;;;;;;6360727;28;20212;-90
2023/11/25 00:29:15;;;;;;;0.80;0.22;;;;;;;;;;6359063;27;20047;-89
2023/11/25 00:32:17;;;;;;;0.10;0.10;;;;;;;;;;6357066;28;20078;-88
2023/11/25 00:35:19;;;;;;;1.83;0.20;;;;;;;;;;6358454;28;20237;-89
2023/11/25 00:38:22;;;;;;;0.10;0.10;;;;;;;;;;6360576;27;20075;-89
2023/11/25 00:41:25;;;;;;;1.33;0.20;;;;;;;;;;6358037;27;20110;-89
2023/11/25 00:44:27;;;;;;;0.40;0.20;;;;;;;;;;6355620;27;20097;-88
2023/11/25 00:47:30;;;;;;;0.40;0.20;;;;;;;;;;6355688;28;20055;-88
2023/11/25 00:50:32;;;;;;;3.47;0.22;;;;;;;;;;6356442;28;20123;-88
2023/11/25 00:53:36;;;;;;;1.25;0.10;;;;;;;;;;6355383;27;20043;-88
2023/11/25 00:56:40;;;;;;;1.35;0.13;;;;;;;;;;6356091;28;20055;-89
2023/11/25 00:59:42;;;;;;;0.37;0.10;;;;;;;;;;6351150;28;20055;-88
2023/11/25 01:02:44;;;;;;;2.55;0.30;;;;;;;;;;6348792;28;20445;-89
2023/11/25 01:05:46;;;;;;;2.63;0.20;;;;;;;;;;6356588;28;20185;-90
2023/11/25 01:08:49;;;;;;;0.30;0.00;;;;;;;;;;6357598;28;20050;-89
2023/11/25 01:11:54;;;;;;;0.45;0.10;;;;;;;;;;6351869;28;20055;-89
2023/11/25 01:14:56;;;;;;;0.00;0.00;;;;;;;;;;6354852;27;20052;-89
2023/11/25 01:17:58;;;;;;;0.63;0.10;;;;;;;;;;6356275;28;20073;-88
2023/11/25 01:20:59;;;;;;;0.98;0.10;;;;;;;;;;6357622;27;20044;-89
2023/11/25 01:24:02;;;;;;;0.13;0.00;;;;;;;;;;6354385;27;20326;-89
2023/11/25 01:27:07;;;;;;;0.13;0.10;;;;;;;;;;6357209;28;20047;-87
2023/11/25 01:30:30;;;;;;;0.00;0.00;;;;;;;;;;6280582;28;20075;-89
2023/11/25 01:33:32;;;;;;;0.20;0.03;;;;;;;;;;6353090;27;20324;-88
2023/11/25 01:36:34;;;;;;;0.20;0.00;;;;;;;;;;6355689;27;20047;-88
2023/11/25 01:39:37;;;;;;;0.47;0.10;;;;;;;;;;6355531;28;20060;-89
2023/11/25 01:45:57;;;;;;;0.30;0.10;;;;;;;;;;6298895;28;20044;-89
2023/11/25 01:48:59;;;;;;;0.37;0.00;;;;;;;;;;6303024;28;20222;-89
2023/11/25 01:52:01;;;;;;;0.63;0.10;;;;;;;;;;6317934;28;20076;-88
2023/11/25 01:55:04;;;;;;;0.20;0.03;;;;;;;;;;6299136;28;20044;-89
2023/11/25 01:58:08;;;;;;;0.82;0.17;;;;;;;;;;6318399;28;20050;-88
2023/11/25 02:01:10;;;;;;;0.30;0.10;;;;;;;;;;6302496;28;20530;-88
2023/11/25 02:04:13;;;;;;;0.10;0.00;;;;;;;;;;6302981;28;20043;-89
2023/11/25 02:07:15;;;;;;;0.00;0.00;;;;;;;;;;6316722;28;20360;-89
2023/11/25 02:10:17;;;;;;;0.20;0.10;;;;;;;;;;6318811;28;20051;-90
2023/11/25 02:13:22;;;;;;;0.30;0.10;;;;;;;;;;6320389;28;20082;-88
2023/11/25 02:16:24;;;;;;;1.55;0.22;;;;;;;;;;6320654;28;20066;-89
2023/11/25 02:19:26;;;;;;;0.30;0.10;;;;;;;;;;6320858;28;20052;-88
2023/11/25 02:22:28;;;;;;;0.30;0.08;;;;;;;;;;6327926;28;20039;-89
2023/11/25 02:25:32;;;;;;;0.00;0.00;;;;;;;;;;6355380;28;20056;-89
2023/11/25 02:28:53;;;;;;;0.00;0.00;;;;;;;;;;6353160;28;20082;-89
2023/11/25 02:31:57;;;;;;;0.35;0.10;;;;;;;;;;6353702;28;20063;-89
2023/11/25 02:35:00;;;;;;;0.22;0.00;;;;;;;;;;6353985;28;20122;-89
2023/11/25 02:38:04;;;;;;;0.17;0.10;;;;;;;;;;6348044;27;20070;-89
2023/11/25 02:44:43;;;;;;;0.30;0.03;;;;;;;;;;6337856;28;20043;-88
2023/11/25 02:47:48;;;;;;;0.20;0.00;;;;;;;;;;6355906;28;20052;-88
2023/11/25 02:50:50;;;;;;;0.10;0.00;;;;;;;;;;6354130;27;20051;-88
2023/11/25 02:53:52;;;;;;;0.13;0.10;;;;;;;;;;6354888;27;20048;-88
2023/11/25 02:56:56;;;;;;;0.00;0.00;;;;;;;;;;6356466;28;20058;-88
2023/11/25 02:59:59;;;;;;;0.15;0.08;;;;;;;;;;6353031;28;20055;-88
2023/11/25 03:03:07;;;;;;;0.43;0.08;;;;;;;;;;6352354;28;20047;-88
2023/11/25 03:06:10;;;;;;;0.10;0.10;;;;;;;;;;6360481;27;20047;-88
2023/11/25 03:09:13;;;;;;;0.30;0.10;;;;;;;;;;6354029;28;20656;-87
2023/11/25 03:12:16;;;;;;;0.00;0.00;;;;;;;;;;6352074;28;20054;-88
2023/11/25 03:15:19;;;;;;;0.52;0.05;;;;;;;;;;6352690;28;20464;-89
2023/11/25 03:18:21;;;;;;;0.40;0.05;;;;;;;;;;6353543;28;20312;-88
2023/11/25 03:21:23;;;;;;;0.03;0.03;;;;;;;;;;6351483;28;20054;-87
2023/11/25 03:24:25;;;;;;;0.65;0.10;;;;;;;;;;6354811;28;20052;-88
2023/11/25 03:27:28;;;;;;;0.20;0.17;;;;;;;;;;6354015;28;20044;-88
2023/11/25 03:30:32;;;;;;;0.52;0.20;;;;;;;;;;6353956;28;20329;-88
2023/11/25 03:33:34;;;;;;;0.52;0.10;;;;;;;;;;6354406;28;20134;-89
2023/11/25 03:36:36;;;;;;;1.10;0.10;;;;;;;;;;6355199;28;20098;-88
2023/11/25 03:39:38;;;;;;;0.30;0.17;;;;;;;;;;6355169;28;20236;-88
2023/11/25 03:45:58;;;;;;;0.15;0.10;;;;;;;;;;6332727;28;20110;-89
2023/11/25 03:49:00;;;;;;;0.20;0.10;;;;;;;;;;6360244;28;20061;-88
2023/11/25 03:52:02;;;;;;;0.00;0.00;;;;;;;;;;6359872;28;20351;-88
2023/11/25 03:58:22;;;;;;;0.20;0.20;;;;;;;;;;6343211;27;20067;-89
2023/11/25 04:01:24;;;;;;;2.33;0.10;;;;;;;;;;6349900;27;20108;-88
2023/11/25 04:04:26;;;;;;;0.52;0.20;;;;;;;;;;6371406;27;20047;-89
2023/11/25 04:07:30;;;;;;;0.22;0.10;;;;;;;;;;6359305;28;20103;-88
2023/11/25 04:10:32;;;;;;;0.00;0.00;;;;;;;;;;6358215;28;20240;-89
2023/11/25 04:13:37;;;;;;;0.17;0.00;;;;;;;;;;6348876;27;20228;-89
2023/11/25 04:16:38;;;;;;;0.00;0.00;;;;;;;;;;6371545;27;20065;-89
2023/11/25 04:19:41;;;;;;;1.55;0.10;;;;;;;;;;6354200;27;20075;-88
2023/11/25 04:22:44;;;;;;;0.75;0.10;;;;;;;;;;6368404;27;20048;-88
2023/11/25 04:25:50;;;;;;;0.05;0.05;;;;;;;;;;6357874;27;20051;-88
2023/11/25 04:32:10;;;;;;;0.75;0.15;;;;;;;;;;6337325;28;20051;-89
2023/11/25 04:35:13;;;;;;;0.17;0.00;;;;;;;;;;6342401;28;20109;-89
2023/11/25 04:38:15;;;;;;;3.33;0.17;;;;;;;;;;6354374;28;20111;-89
2023/11/25 04:41:18;;;;;;;0.13;0.10;;;;;;;;;;6358111;28;20055;-88
2023/11/25 04:44:21;;;;;;;0.40;0.13;;;;;;;;;;6357826;28;20374;-89
2023/11/25 04:47:23;;;;;;;0.52;0.20;;;;;;;;;;6357634;28;20594;-88
2023/11/25 04:50:26;;;;;;;0.70;0.20;;;;;;;;;;6358241;28;20056;-88
2023/11/25 04:53:28;;;;;;;5.65;0.47;;;;;;;;;;6357923;27;20054;-89
2023/11/25 04:56:30;;;;;;;0.30;0.10;;;;;;;;;;6358774;28;20236;-89
2023/11/25 04:59:34;;;;;;;0.47;0.10;;;;;;;;;;6355603;28;20044;-89
2023/11/25 05:02:37;;;;;;;0.47;0.05;;;;;;;;;;6355758;28;20050;-88
2023/11/25 05:05:39;;;;;;;0.13;0.00;;;;;;;;;;6356383;28;20047;-88
2023/11/25 05:08:41;;;;;;;0.40;0.10;;;;;;;;;;6358321;28;20079;-89
2023/11/25 05:11:44;;;;;;;1.67;0.25;;;;;;;;;;6357406;28;20111;-88
2023/11/25 05:18:05;;;;;;;0.57;0.10;;;;;;;;;;6344496;28;20047;-88
2023/11/25 05:21:09;;;;;;;0.10;0.10;;;;;;;;;;6355532;27;20343;-89
2023/11/25 05:24:11;;;;;;;1.02;0.10;;;;;;;;;;6354123;27;20097;-88
2023/11/25 05:27:13;;;;;;;0.00;0.00;;;;;;;;;;6355948;27;20122;-88
2023/11/25 05:30:17;;;;;;;2.15;0.20;;;;;;;;;;6357542;27;20331;-88
2023/11/25 05:33:19;;;;;;;0.10;0.00;;;;;;;;;;6354330;28;20062;-89
2023/11/25 05:36:42;;;;;;;1.23;0.10;;;;;;;;;;6352724;28;20056;-88
2023/11/25 05:39:45;;;;;;;1.35;0.20;;;;;;;;;;6345664;28;20047;-89
2023/11/25 05:42:53;;;;;;;1.35;0.20;;;;;;;;;;6353468;28;20055;-88
2023/11/25 05:49:12;;;;;;;0.30;0.15;;;;;;;;;;6317713;28;20044;-88
2023/11/25 05:52:16;;;;;;;0.52;0.13;;;;;;;;;;6352897;28;20279;-89
2023/11/25 05:55:19;;;;;;;0.30;0.10;;;;;;;;;;6357047;28;20096;-88
2023/11/25 05:58:21;;;;;;;0.45;0.20;;;;;;;;;;6354260;28;20152;-88
2023/11/25 06:01:26;;;;;;;1.90;0.35;;;;;;;;;;6351521;28;20233;-88
2023/11/25 06:04:29;;;;;;;1.17;0.10;;;;;;;;;;6354009;28;20067;-87
2023/11/25 06:07:31;;;;;;;0.63;0.10;;;;;;;;;;6353235;27;20043;-88
2023/11/25 06:10:32;;;;;;;0.93;0.40;;;;;;;;;;6355049;28;20067;-88
2023/11/25 06:13:34;;;;;;;1.15;0.20;;;;;;;;;;6354523;28;20078;-87
2023/11/25 06:16:41;;;;;;;0.65;0.28;;;;;;;;;;6355378;28;20054;-87
2023/11/25 06:19:45;;;;;;;2.35;0.10;;;;;;;;;;6353108;28;20055;-88
2023/11/25 06:22:47;;;;;;;2.03;0.10;;;;;;;;;;6354399;28;20067;-89
2023/11/25 06:25:50;;;;;;;0.47;0.20;;;;;;;;;;6354030;28;20055;-88
2023/11/25 06:28:53;;;;;;;0.43;0.20;;;;;;;;;;6353814;28;20105;-88
2023/11/25 06:31:56;;;;;;;0.63;0.22;;;;;;;;;;6352800;28;20058;-88
2023/11/25 06:34:59;;;;;;;1.70;0.28;;;;;;;;;;6355098;28;20047;-88
2023/11/25 06:38:01;;;;;;;3.97;0.30;;;;;;;;;;6355922;28;20112;-87
2023/11/25 06:41:03;;;;;;;1.98;0.40;;;;;;;;;;6351089;28;20054;-88
2023/11/25 06:44:08;;;;;;;0.22;0.10;;;;;;;;;;6347889;28;20050;-89
2023/11/25 06:47:12;;;;;;;1.90;0.30;;;;;;;;;;6352828;28;20044;-88
2023/11/25 06:50:14;;;;;;;0.08;0.08;;;;;;;;;;6353232;28;20118;-88
2023/11/25 06:53:18;;;;;;;0.40;0.10;;;;;;;;;;6354067;27;20077;-88
2023/11/25 06:56:22;;;;;;;;;;;;;;;;;;6352213;28;20324;-87
2023/11/25 06:59:24;;;;;;;0.40;0.20;;;;;;;;;;6352615;28;19983;-88
2023/11/25 07:02:27;;;;;;;0.65;0.40;;;;;;;;;;6351331;28;20043;-88
2023/11/25 07:05:33;;;;;;;1.10;0.52;;;;;;;;;;6355708;27;20050;-89
2023/11/25 07:08:35;;;;;;;0.60;0.30;;;;;;;;;;6354917;28;20051;-89
2023/11/25 07:11:42;;;;;;;0.43;0.25;;;;;;;;;;6352043;28;20051;-89
2023/11/25 07:15:05;;;;;;;0.55;0.20;;;;;;;;;;6351415;28;20059;-90
2023/11/25 07:18:08;;;;;;;0.85;0.20;;;;;;;;;;6350897;28;20327;-90
2023/11/25 07:21:16;;;;;;;0.88;0.20;;;;;;;;;;6337946;28;20043;-89
2023/11/25 07:24:17;;;;;;;0.77;0.40;;;;;;;;;;6353448;28;20083;-87
2023/11/25 07:27:19;;;;;;;0.17;0.10;;;;;;;;;;6352752;28;20131;-87
2023/11/25 07:30:22;;;;;;;0.40;0.20;;;;;;;;;;6353628;28;20263;-91
2023/11/25 07:33:25;;;;;;;0.17;0.17;;;;;;;;;;6350946;28;20081;-87
2023/11/25 07:36:27;;;;;;;0.50;0.20;;;;;;;;;;6352607;28;20340;-86
2023/11/25 07:39:30;;;;;;;1.25;0.30;;;;;;;;;;6350259;28;20122;-86
2023/11/25 07:42:34;;;;;;;;;;;;;;;;;;6343293;28;20302;-89
2023/11/25 07:45:36;;;;;;;2.95;0.20;;;;;;;;;;6350991;28;20242;-87
2023/11/25 07:48:47;;;;;;;1.02;0.20;;;;;;;;;;6355440;27;20047;-86
2023/11/25 07:51:51;;;;;;;0.47;0.35;;;;;;;;;;6321776;27;20078;-90
2023/11/25 07:58:15;;;;;;;0.25;0.17;;;;;;;;;;6324624;28;20110;-88
2023/11/25 08:01:18;;;;;;;0.30;0.20;;;;;;;;;;6354239;28;20040;-89
2023/11/25 08:04:22;;;;;;;2.35;0.30;;;;;;;;;;6353722;28;20348;-88
2023/11/25 08:07:24;;;;;;;4.75;1.17;;;;;;;;;;6354731;28;20409;-88
2023/11/25 08:10:34;;;;;;;1.42;0.30;;;;;;;;;;6352583;27;20058;-89
2023/11/25 08:13:36;;;;;;;1.30;0.32;;;;;;;;;;6371166;27;20059;-89
2023/11/25 08:16:38;;;;;;;0.45;0.20;;;;;;;;;;6354364;28;20036;-88
2023/11/25 08:19:41;;;;;;;0.95;0.30;;;;;;;;;;6352071;28;20150;-88
2023/11/25 08:22:43;;;;;;;0.38;0.20;;;;;;;;;;6355345;28;20119;-88
2023/11/25 08:25:45;;;;;;;3.72;0.30;;;;;;;;;;6354359;28;20110;-87
2023/11/25 08:28:49;;;;;;;2.83;0.40;;;;;;;;;;6356475;28;20219;-87
2023/11/25 08:31:51;;;;;;;2.05;0.30;;;;;;;;;;6356336;28;20052;-87
2023/11/25 08:34:57;;;;;;;2.63;0.60;;;;;;;;;;6359949;28;20093;-87
2023/11/25 08:38:18;;;;;;;1.20;0.30;;;;;;;;;;6341369;27;20055;-85
2023/11/25 08:41:20;;;;;;;2.08;0.20;;;;;;;;;;6360700;27;20644;-86
2023/11/25 08:44:22;;;;;;;1.05;0.30;;;;;;;;;;6359950;27;20058;-87
2023/11/25 08:47:23;;;;;;;1.23;0.32;;;;;;;;;;6346734;27;20288;-86
2023/11/25 08:50:28;;;;;;;5.38;0.82;;;;;;;;;;6355557;27;20044;-86
2023/11/25 08:53:30;;;;;;;0.65;0.40;;;;;;;;;;6357140;28;20052;-86
2023/11/25 08:56:33;;;;;;;2.35;0.50;;;;;;;;;;6358978;28;20096;-86
2023/11/25 08:59:38;;;;;;;0.73;0.52;;;;;;;;;;6355319;28;20363;-86
2023/11/25 09:02:41;;;;;;;1.20;0.47;;;;;;;;;;6358422;27;20047;-86
2023/11/25 09:09:03;;;;;;;0.35;0.20;;;;;;;;;;6348404;27;20078;-87
2023/11/25 09:12:14;;;;;;;0.60;0.30;;;;;;;;;;6357131;27;20051;-86
2023/11/25 09:15:16;;;;;;;2.67;0.35;;;;;;;;;;6354905;28;20128;-87
2023/11/25 09:18:29;;;;;;;2.28;0.40;;;;;;;;;;6355009;28;20178;-87
2023/11/25 09:21:33;;;;;;;0.65;0.40;;;;;;;;;;6356377;28;20058;-86
2023/11/25 09:24:36;;;;;;;0.63;0.30;;;;;;;;;;6328581;27;20083;-87
2023/11/25 09:27:38;;;;;;;1.30;0.32;;;;;;;;;;6356423;28;20067;-86
2023/11/25 09:30:44;;;;;;;1.02;0.30;;;;;;;;;;6355313;28;20381;-86
2023/11/25 09:33:47;;;;;;;1.48;0.55;;;;;;;;;;6354976;28;20052;-87
2023/11/25 09:36:50;;;;;;;0.93;0.30;;;;;;;;;;6356293;28;20062;-85
2023/11/25 09:39:53;;;;;;;0.68;0.28;;;;;;;;;;6339816;27;20060;-86
2023/11/25 09:43:02;;;;;;;0.65;0.20;;;;;;;;;;6346193;28;20074;-86
2023/11/25 09:46:07;;;;;;;0.40;0.20;;;;;;;;;;6341213;27;20055;-86
2023/11/25 09:49:11;;;;;;;0.60;0.30;;;;;;;;;;6347724;27;20055;-86
2023/11/25 09:52:33;;;;;;;2.35;0.28;;;;;;;;;;6360574;27;20052;-86
2023/11/25 09:55:35;;;;;;;2.70;0.60;;;;;;;;;;6355254;28;20074;-85
2023/11/25 09:58:41;;;;;;;0.98;0.30;;;;;;;;;;6355253;28;20051;-85
2023/11/25 10:01:46;;;;;;;1.17;0.30;;;;;;;;;;6354317;28;20086;-86
2023/11/25 10:04:52;;;;;;;1.35;0.20;;;;;;;;;;6353867;28;20044;-87
2023/11/25 10:11:14;;;;;;;1.17;0.40;;;;;;;;;;6321066;27;20071;-86
2023/11/25 10:14:17;;;;;;;1.05;0.25;;;;;;;;;;6351644;28;20059;-86
2023/11/25 10:17:20;;;;;;;0.75;0.20;;;;;;;;;;6352599;28;20051;-90
2023/11/25 10:20:30;;;;;;;1.43;0.40;;;;;;;;;;6352565;28;20073;-91
2023/11/25 10:26:51;;;;;;;0.95;0.30;;;;;;;;;;6356035;27;20051;-88
2023/11/25 10:29:54;;;;;;;0.93;0.30;;;;;;;;;;6356073;27;21020;-86
2023/11/25 10:33:00;;;;;;;1.75;0.20;;;;;;;;;;6356106;27;20051;-87
2023/11/25 10:36:03;;;;;;;1.52;0.28;;;;;;;;;;6353600;28;20598;-86
2023/11/25 10:39:08;;;;;;;1.02;0.25;;;;;;;;;;6354558;28;20047;-85
2023/11/25 10:42:11;;;;;;;3.50;0.20;;;;;;;;;;6352942;27;20056;-85
2023/11/25 10:45:17;;;;;;;0.77;0.23;;;;;;;;;;6350270;28;20043;-86
2023/11/25 10:48:19;;;;;;;0.28;0.20;;;;;;;;;;6349699;28;20119;-85
2023/11/25 10:51:21;;;;;;;2.30;0.50;;;;;;;;;;6353545;28;20073;-87
2023/11/25 10:54:28;;;;;;;1.17;0.40;;;;;;;;;;6354617;28;20067;-86
2023/11/25 10:57:31;;;;;;;2.85;0.30;;;;;;;;;;6350891;28;20062;-86
2023/11/25 11:00:40;;;;;;;1.03;0.53;;;;;;;;;;6350557;27;20058;-86
2023/11/25 11:03:53;;;;;;;1.13;0.30;;;;;;;;;;6351974;28;20473;-86
2023/11/25 11:06:59;;;;;;;2.45;0.30;;;;;;;;;;6338224;28;20063;-86
2023/11/25 11:10:03;;;;;;;0.55;0.20;;;;;;;;;;6351594;28;20055;-86
2023/11/25 11:13:08;;;;;;;0.70;0.10;;;;;;;;;;6353524;28;20059;-86
2023/11/25 11:16:17;;;;;;;0.40;0.15;;;;;;;;;;6367311;27;20272;-85
2023/11/25 11:19:23;;;;;;;1.83;0.45;;;;;;;;;;6352556;28;20063;-87
2023/11/25 11:22:25;;;;;;;3.20;0.40;;;;;;;;;;6370140;27;20044;-89
2023/11/25 11:25:35;;;;;;;0.47;0.20;;;;;;;;;;6352860;28;20054;-88
2023/11/25 11:28:44;;;;;;;82.82;6.20;;;;;;;;;;6355013;28;20318;-91
2023/11/25 11:32:00;;;;;;;1.92;0.20;;;;;;;;;;6354986;28;20244;-90
2023/11/25 11:35:03;;;;;;;1.58;0.40;;;;;;;;;;6351684;28;20066;-89
2023/11/25 11:38:23;;;;;;;0.85;0.30;;;;;;;;;;6354876;28;20044;-90
2023/11/25 11:41:29;;;;;;;1.38;0.20;;;;;;;;;;6352069;28;20040;-90
2023/11/25 11:44:34;;;;;;;5.10;0.20;;;;;;;;;;6353509;28;20046;-91
2023/11/25 11:47:39;;;;;;;5.80;0.10;;;;;;;;;;6354261;28;20103;-91
2023/11/25 11:50:42;;;;;;;0.85;0.20;;;;;;;;;;6352935;28;20251;-90
2023/11/25 11:53:45;;;;;;;0.70;0.30;;;;;;;;;;6353561;28;20044;-91
2023/11/25 11:57:04;;;;;;;3.47;0.20;;;;;;;;;;6354024;28;20092;-90
2023/11/25 12:00:11;;;;;;;2.88;0.32;;;;;;;;;;6354510;28;20617;-90
2023/11/25 12:03:14;;;;;;;0.60;0.40;;;;;;;;;;6356192;28;20145;-89
2023/11/25 12:06:19;;;;;;;0.45;0.20;;;;;;;;;;6356585;28;20051;-90
2023/11/25 12:09:22;;;;;;;0.50;0.20;;;;;;;;;;6358158;27;20378;-89
2023/11/25 12:12:26;;;;;;;1.67;0.40;;;;;;;;;;6357712;27;20104;-90
2023/11/25 12:15:31;;;;;;;1.45;0.10;;;;;;;;;;6359493;28;20044;-89
2023/11/25 12:18:34;;;;;;;0.50;0.20;;;;;;;;;;6358176;28;20051;-88
2023/11/25 12:21:37;;;;;;;3.15;0.70;;;;;;;;;;6358324;27;20101;-89
2023/11/25 12:24:41;;;;;;;0.90;0.50;;;;;;;;;;6358591;28;20114;-89
2023/11/25 12:27:52;;;;;;;2.22;0.22;;;;;;;;;;6356501;28;20070;-89
2023/11/25 12:30:54;;;;;;;1.85;0.35;;;;;;;;;;6357303;28;20083;-89
2023/11/25 12:34:01;;;;;;;0.88;0.20;;;;;;;;;;6356660;27;20296;-91
2023/11/25 12:37:03;;;;;;;1.38;0.50;;;;;;;;;;6356555;28;20051;-93
2023/11/25 12:40:17;;;;;;;3.47;0.50;;;;;;;;;;6354345;27;20135;-89
2023/11/25 12:43:21;;;;;;;0.77;0.20;;;;;;;;;;6356903;28;20101;-90
2023/11/25 12:46:24;;;;;;;4.18;0.25;;;;;;;;;;6355738;28;20093;-92
2023/11/25 12:49:27;;;;;;;3.88;0.30;;;;;;;;;;6356308;27;20122;-91
2023/11/25 12:52:30;;;;;;;0.98;0.40;;;;;;;;;;6354743;27;20092;-92
2023/11/25 12:55:39;;;;;;;1.45;0.40;;;;;;;;;;6356566;28;20043;-91
2023/11/25 12:58:44;;;;;;;0.65;0.43;;;;;;;;;;6352859;28;20054;-91
2023/11/25 13:01:47;;;;;;;1.63;0.15;;;;;;;;;;6356585;28;20239;-91
2023/11/25 13:04:49;;;;;;;0.50;0.13;;;;;;;;;;6352574;28;20079;-88
2023/11/25 13:07:53;;;;;;;1.08;0.40;;;;;;;;;;6355003;28;20101;-88
2023/11/25 13:10:58;;;;;;;1.85;0.28;;;;;;;;;;6355440;27;20065;-89
2023/11/25 13:14:03;;;;;;;1.05;0.20;;;;;;;;;;6354853;28;20101;-89
2023/11/25 13:17:06;;;;;;;0.45;0.20;;;;;;;;;;6355435;27;20063;-88
2023/11/25 13:20:10;;;;;;;0.35;0.20;;;;;;;;;;6353908;28;20058;-90
2023/11/25 13:23:14;;;;;;;0.28;0.10;;;;;;;;;;6356304;27;20058;-90
2023/11/25 13:26:17;;;;;;;0.65;0.30;;;;;;;;;;6355246;28;20120;-90
2023/11/25 13:29:21;;;;;;;1.20;0.30;;;;;;;;;;6355682;28;20064;-88
2023/11/25 13:32:25;;;;;;;3.28;0.50;;;;;;;;;;6355248;28;20321;-88
2023/11/25 13:35:29;;;;;;;2.78;0.30;;;;;;;;;;6354849;27;21096;-89
2023/11/25 13:38:31;;;;;;;0.30;0.15;;;;;;;;;;6356316;28;20107;-88
2023/11/25 13:41:34;;;;;;;0.47;0.20;;;;;;;;;;6356378;27;20048;-89
2023/11/25 13:44:37;;;;;;;0.25;0.17;;;;;;;;;;6356243;27;20217;-90
2023/11/25 13:47:42;;;;;;;0.85;0.30;;;;;;;;;;6355160;28;20128;-89
2023/11/25 13:50:44;;;;;;;0.43;0.22;;;;;;;;;;6356968;27;20135;-90
2023/11/25 13:53:47;;;;;;;1.05;0.30;;;;;;;;;;6354545;28;20066;-90
2023/11/25 13:56:51;;;;;;;0.45;0.20;;;;;;;;;;6353417;28;20052;-89
2023/11/25 13:59:55;;;;;;;0.30;0.20;;;;;;;;;;6356381;27;20055;-89
2023/11/25 14:02:59;;;;;;;1.13;0.20;;;;;;;;;;6355541;28;20122;-90
2023/11/25 14:06:02;;;;;;;0.25;0.10;;;;;;;;;;6353796;28;20067;-91
2023/11/25 14:09:05;;;;;;;0.40;0.10;;;;;;;;;;6351788;28;20155;-89
2023/11/25 14:12:09;;;;;;;0.50;0.20;;;;;;;;;;6355484;28;20059;-90
2023/11/25 14:15:15;;;;;;;1.05;0.30;;;;;;;;;;6354977;28;20128;-90
2023/11/25 14:18:17;;;;;;;2.45;0.40;;;;;;;;;;6353950;27;20220;-90
2023/11/25 14:21:20;;;;;;;0.60;0.40;;;;;;;;;;6355432;28;20055;-90
2023/11/25 14:24:22;;;;;;;0.93;0.20;;;;;;;;;;6352693;28;20543;-90
2023/11/25 14:27:25;;;;;;;2.45;0.25;;;;;;;;;;6351530;28;20107;-90
2023/11/25 14:30:32;;;;;;;0.40;0.30;;;;;;;;;;6353873;27;20056;-87
2023/11/25 14:33:35;;;;;;;2.70;0.40;;;;;;;;;;6354957;28;20085;-88
2023/11/25 14:36:37;;;;;;;14.05;5.78;;;;;;;;;;6355358;27;20063;-90
2023/11/25 14:39:41;;;;;;;65.40;29.17;;;;;;;;;;6355241;28;20052;-90
2023/11/25 14:42:43;;;;;;;6.45;2.58;;;;;;;;;;6352527;27;20266;-91
2023/11/25 14:45:47;;;;;;;0.65;0.30;;;;;;;;;;6353321;27;20205;-90
2023/11/25 14:48:50;;;;;;;1.52;0.43;;;;;;;;;;6353954;28;20089;-89
2023/11/25 14:51:52;;;;;;;0.63;0.30;;;;;;;;;;6351979;27;20048;-90
2023/11/25 14:54:55;;;;;;;2.20;0.30;;;;;;;;;;6356200;28;20059;-88
2023/11/25 14:57:57;;;;;;;0.93;0.30;;;;;;;;;;6353588;28;20119;-90
2023/11/25 15:01:01;;;;;;;0.82;0.30;;;;;;;;;;6355303;28;20111;-90
2023/11/25 15:04:05;;;;;;;0.43;0.20;;;;;;;;;;6353819;28;20122;-90
2023/11/25 15:07:07;;;;;;;1.13;0.40;;;;;;;;;;6355510;28;20118;-90
2023/11/25 15:10:10;;;;;;;0.85;0.52;;;;;;;;;;6352508;27;20055;-89
2023/11/25 15:13:12;;;;;;;0.70;0.30;;;;;;;;;;6353681;27;20321;-88
2023/11/25 15:16:16;;;;;;;1.98;0.45;;;;;;;;;;6353085;28;20381;-91
2023/11/25 15:19:18;;;;;;;;;;;;;;;;;;6355083;28;20047;-90
2023/11/25 15:22:21;;;;;;;0.65;0.20;;;;;;;;;;6355677;28;19916;-90
2023/11/25 15:25:23;;;;;;;2.05;0.40;;;;;;;;;;6353526;28;20047;-88
2023/11/25 15:28:26;;;;;;;0.52;0.30;;;;;;;;;;6353585;28;20112;-89
2023/11/25 15:31:31;;;;;;;1.77;0.68;;;;;;;;;;6354040;27;20225;-90
2023/11/25 15:34:33;;;;;;;0.55;0.22;;;;;;;;;;6354633;28;20319;-91
2023/11/25 15:37:35;;;;;;;1.67;0.63;;;;;;;;;;6359824;28;20055;-91
2023/11/25 15:40:38;;;;;;;1.27;0.47;;;;;;;;;;6359938;28;20115;-91
2023/11/25 15:43:41;;;;;;;0.93;0.47;;;;;;;;;;6359797;28;20281;-91
2023/11/25 15:46:45;;;;;;;1.17;0.68;;;;;;;;;;6356724;28;20052;-91
2023/11/25 15:49:47;;;;;;;;;;;;;;;;;;6360050;28;20079;-87
2023/11/25 15:52:52;;;;;;;2.15;0.40;;;;;;;;;;6359510;28;20024;-89
2023/11/25 15:55:56;;;;;;;3.78;0.90;;;;;;;;;;6356386;27;20059;-89
2023/11/25 15:59:01;;;;;;;1.10;0.60;;;;;;;;;;6374404;27;20282;-92
2023/11/25 16:02:05;;;;;;;0.73;0.57;;;;;;;;;;6357718;28;20054;-92
2023/11/25 16:05:09;;;;;;;2.13;0.80;;;;;;;;;;6356279;27;20051;-91
2023/11/25 16:08:11;;;;;;;2.45;1.00;;;;;;;;;;6357446;28;20093;-92
2023/11/25 16:11:14;;;;;;;1.98;0.82;;;;;;;;;;6357840;28;20067;-91
2023/11/25 16:14:16;;;;;;;2.00;1.10;;;;;;;;;;6355986;28;20075;-90
2023/11/25 16:17:20;;;;;;;3.08;0.77;;;;;;;;;;6355681;28;20047;-92
2023/11/25 16:20:23;;;;;;;1.77;1.10;;;;;;;;;;6357165;28;20111;-91
2023/11/25 16:23:25;;;;;;;1.98;1.08;;;;;;;;;;6358133;28;20063;-90
2023/11/25 16:26:28;;;;;;;3.40;1.25;;;;;;;;;;6359391;27;20047;-89
2023/11/25 16:29:30;;;;;;;1.90;1.10;;;;;;;;;;6361052;28;20059;-90
2023/11/25 16:32:34;;;;;;;3.00;1.10;;;;;;;;;;6360338;28;20059;-91
2023/11/25 16:35:37;;;;;;;;;;;;;;;;;;6360167;28;20054;-89
2023/11/25 16:38:39;;;;;;;1.77;0.85;;;;;;;;;;6358583;28;19924;-91
2023/11/25 16:41:42;;;;;;;3.33;1.20;;;;;;;;;;6358051;28;20065;-91
2023/11/25 16:44:47;;;;;;;2.03;1.15;;;;;;;;;;6358463;28;20227;-91
2023/11/25 16:47:51;;;;;;;3.47;1.05;;;;;;;;;;6354842;27;20081;-91
2023/11/25 16:50:53;;;;;;;2.70;1.30;;;;;;;;;;6348288;27;20324;-91
2023/11/25 16:53:56;;;;;;;2.70;1.00;;;;;;;;;;6353760;27;20337;-91
2023/11/25 16:56:59;;;;;;;2.17;1.10;;;;;;;;;;6354722;28;20060;-91
2023/11/25 17:00:01;;;;;;;1.75;1.00;;;;;;;;;;6355868;28;20082;-91
2023/11/25 17:03:05;;;;;;;2.22;0.93;;;;;;;;;;6355935;27;20277;-91
2023/11/25 17:06:09;;;;;;;;;;;;;;;;;;6358378;28;20502;-91
2023/11/25 17:09:11;;;;;;;1.85;0.77;;;;;;;;;;6353951;28;19927;-90
2023/11/25 17:12:14;;;;;;;2.10;1.00;;;;;;;;;;6357520;27;20051;-91
2023/11/25 17:15:16;;;;;;;3.60;1.10;;;;;;;;;;6354252;28;20114;-93
2023/11/25 17:18:20;;;;;;;2.65;1.30;;;;;;;;;;6354944;28;20243;-91
2023/11/25 17:21:24;;;;;;;5.22;1.38;;;;;;;;;;6339223;28;20066;-92
2023/11/25 17:24:27;;;;;;;2.03;1.10;;;;;;;;;;6355203;28;20106;-91
2023/11/25 17:27:33;;;;;;;4.00;1.20;;;;;;;;;;6357372;28;20063;-92
2023/11/25 17:30:35;;;;;;;2.95;1.20;;;;;;;;;;6355694;28;20093;-91
2023/11/25 17:33:39;;;;;;;2.22;1.20;;;;;;;;;;6355930;28;20085;-92
2023/11/25 17:36:42;;;;;;;2.10;1.00;;;;;;;;;;6354528;28;20115;-90
2023/11/25 17:39:46;;;;;;;2.00;1.10;;;;;;;;;;6349547;28;20067;-91
2023/11/25 17:42:48;;;;;;;2.30;1.05;;;;;;;;;;6356833;27;20047;-92
2023/11/25 17:45:50;;;;;;;4.35;0.95;;;;;;;;;;6357235;28;20051;-92
2023/11/25 17:48:55;;;;;;;1.25;0.75;;;;;;;;;;6355038;27;20388;-92
2023/11/25 17:51:58;;;;;;;3.47;1.10;;;;;;;;;;6351818;28;20050;-91
2023/11/25 17:55:04;;;;;;;0.73;0.50;;;;;;;;;;6334453;28;20328;-91
2023/11/25 17:58:07;;;;;;;0.70;0.30;;;;;;;;;;6352370;28;20051;-91
2023/11/25 18:01:09;;;;;;;0.98;0.40;;;;;;;;;;6356046;27;20529;-89
2023/11/25 18:04:18;;;;;;;1.20;0.47;;;;;;;;;;6355957;27;20055;-91
2023/11/25 18:07:23;;;;;;;1.17;0.43;;;;;;;;;;6354335;27;20055;-91
2023/11/25 18:10:27;;;;;;;3.72;0.80;;;;;;;;;;6353696;28;20049;-91
2023/11/25 18:13:30;;;;;;;1.10;0.60;;;;;;;;;;6326868;27;20170;-89
2023/11/25 18:16:32;;;;;;;0.82;0.60;;;;;;;;;;6354415;28;20115;-90
2023/11/25 18:19:35;;;;;;;3.47;0.73;;;;;;;;;;6353779;28;20067;-91
2023/11/25 18:22:38;;;;;;;1.45;0.70;;;;;;;;;;6335637;27;20809;-92
2023/11/25 18:25:41;;;;;;;2.15;0.70;;;;;;;;;;6354962;28;20061;-89
2023/11/25 18:28:43;;;;;;;2.95;0.93;;;;;;;;;;6351636;28;20096;-90
2023/11/25 18:31:46;;;;;;;2.58;0.70;;;;;;;;;;6334809;27;20066;-90
2023/11/25 18:34:50;;;;;;;2.78;1.02;;;;;;;;;;6353818;28;20079;-89
2023/11/25 18:37:53;;;;;;;3.47;1.23;;;;;;;;;;6354148;28;20052;-89
2023/11/25 18:40:55;;;;;;;4.20;1.10;;;;;;;;;;6355566;28;20237;-89
2023/11/25 18:43:57;;;;;;;2.83;1.00;;;;;;;;;;6336090;28;20049;-91
2023/11/25 18:47:00;;;;;;;1.27;0.70;;;;;;;;;;6356067;27;20344;-91
2023/11/25 18:50:05;;;;;;;1.92;0.90;;;;;;;;;;6352560;27;20101;-90
2023/11/25 18:53:07;;;;;;;2.35;0.70;;;;;;;;;;6328640;27;20051;-89
2023/11/25 18:56:10;;;;;;;3.58;0.70;;;;;;;;;;6355772;27;20391;-90
2023/11/25 18:59:15;;;;;;;3.25;1.20;;;;;;;;;;6333763;28;20062;-92
2023/11/25 19:02:19;;;;;;;1.77;0.65;;;;;;;;;;6353921;27;20044;-91